Sidney, Illinois
Current Conditions -  °F | °C
As of 4:53 AM on Thursday 27 Nov 2014 (Local Time) from KCMI Reporting Station
Haze Haze  
Wind Chill: 12°   Ceiling: 9000
Heat Index: 25°   Visibility: 6mi
Dew Point: 21°   Wind: 16mph
Humidity: 85%   Direction: 300°WNW
Pressure: 30.29"   Gusts: NA
Location:  40.03°N, 88.07°W
Report Text: KCMI 271053Z AUTO 30014KT 6SM BR OVC090 M04/M06 A3029 RMK AO2 SLP265 T10391061 $
Loading
Personal Weather Stations






























Interactive Weather Map New forecast layout! Learn more

10-Day Weather Forecast

Advertisements
Track Severe Weather on mobile